sensor_id;sensor_type;location;lat;lon;timestamp;P1;durP1;ratioP1;P2;durP2;ratioP2
36191;SDS011;22233;42.708;23.360;2023-06-24T00:00:44;9.60;;;8.55;;
36191;SDS011;22233;42.708;23.360;2023-06-24T00:03:10;9.73;;;8.55;;
36191;SDS011;22233;42.708;23.360;2023-06-24T00:05:38;11.02;;;8.98;;
36191;SDS011;22233;42.708;23.360;2023-06-24T00:08:04;10.15;;;9.02;;
36191;SDS011;22233;42.708;23.360;2023-06-24T00:10:32;13.85;;;9.10;;
36191;SDS011;22233;42.708;23.360;2023-06-24T00:12:58;9.85;;;8.82;;
36191;SDS011;22233;42.708;23.360;2023-06-24T00:15:26;10.07;;;8.93;;
36191;SDS011;22233;42.708;23.360;2023-06-24T00:17:52;10.90;;;9.77;;
36191;SDS011;22233;42.708;23.360;2023-06-24T00:20:17;11.10;;;9.05;;
36191;SDS011;22233;42.708;23.360;2023-06-24T00:22:45;9.98;;;8.98;;
36191;SDS011;22233;42.708;23.360;2023-06-24T00:25:13;11.40;;;9.70;;
36191;SDS011;22233;42.708;23.360;2023-06-24T00:27:40;10.52;;;9.32;;
36191;SDS011;22233;42.708;23.360;2023-06-24T00:32:32;11.65;;;9.20;;
36191;SDS011;22233;42.708;23.360;2023-06-24T00:34:58;11.02;;;9.93;;
36191;SDS011;22233;42.708;23.360;2023-06-24T00:37:25;10.75;;;9.40;;
36191;SDS011;22233;42.708;23.360;2023-06-24T00:39:50;10.10;;;9.10;;
36191;SDS011;22233;42.708;23.360;2023-06-24T00:42:16;13.43;;;9.60;;
36191;SDS011;22233;42.708;23.360;2023-06-24T00:44:42;11.35;;;10.05;;
36191;SDS011;22233;42.708;23.360;2023-06-24T00:47:08;13.65;;;10.35;;
36191;SDS011;22233;42.708;23.360;2023-06-24T00:49:33;9.82;;;8.82;;
36191;SDS011;22233;42.708;23.360;2023-06-24T00:51:59;13.43;;;8.73;;
36191;SDS011;22233;42.708;23.360;2023-06-24T00:54:25;11.20;;;9.35;;
36191;SDS011;22233;42.708;23.360;2023-06-24T00:56:56;10.00;;;9.00;;
36191;SDS011;22233;42.708;23.360;2023-06-24T00:59:25;10.77;;;8.90;;
36191;SDS011;22233;42.708;23.360;2023-06-24T01:01:54;11.05;;;8.68;;
36191;SDS011;22233;42.708;23.360;2023-06-24T01:04:20;10.15;;;8.80;;
36191;SDS011;22233;42.708;23.360;2023-06-24T01:06:45;11.50;;;8.65;;
36191;SDS011;22233;42.708;23.360;2023-06-24T01:09:12;11.27;;;8.30;;
36191;SDS011;22233;42.708;23.360;2023-06-24T01:11:38;10.38;;;9.07;;
36191;SDS011;22233;42.708;23.360;2023-06-24T01:14:04;10.52;;;9.35;;
36191;SDS011;22233;42.708;23.360;2023-06-24T01:16:34;9.73;;;8.73;;
36191;SDS011;22233;42.708;23.360;2023-06-24T01:33:26;9.55;;;8.48;;
36191;SDS011;22233;42.708;23.360;2023-06-24T01:36:19;10.60;;;8.02;;
36191;SDS011;22233;42.708;23.360;2023-06-24T01:38:52;10.23;;;9.20;;
36191;SDS011;22233;42.708;23.360;2023-06-24T01:41:24;9.77;;;8.65;;
36191;SDS011;22233;42.708;23.360;2023-06-24T01:43:52;12.02;;;8.48;;
36191;SDS011;22233;42.708;23.360;2023-06-24T01:46:21;10.95;;;8.77;;
36191;SDS011;22233;42.708;23.360;2023-06-24T01:48:48;11.77;;;9.10;;
36191;SDS011;22233;42.708;23.360;2023-06-24T01:51:19;10.80;;;8.50;;
36191;SDS011;22233;42.708;23.360;2023-06-24T01:53:49;10.40;;;9.30;;
36191;SDS011;22233;42.708;23.360;2023-06-24T01:56:17;10.15;;;8.95;;
36191;SDS011;22233;42.708;23.360;2023-06-24T01:58:45;11.90;;;9.30;;
36191;SDS011;22233;42.708;23.360;2023-06-24T02:01:12;10.63;;;9.48;;
36191;SDS011;22233;42.708;23.360;2023-06-24T02:03:39;11.00;;;8.47;;
36191;SDS011;22233;42.708;23.360;2023-06-24T02:06:07;12.18;;;9.70;;
36191;SDS011;22233;42.708;23.360;2023-06-24T02:11:01;13.05;;;9.18;;
36191;SDS011;22233;42.708;23.360;2023-06-24T02:13:28;11.32;;;9.38;;
36191;SDS011;22233;42.708;23.360;2023-06-24T02:15:57;11.18;;;9.88;;
36191;SDS011;22233;42.708;23.360;2023-06-24T02:18:24;11.35;;;9.90;;
36191;SDS011;22233;42.708;23.360;2023-06-24T02:20:52;10.95;;;9.70;;
36191;SDS011;22233;42.708;23.360;2023-06-24T02:23:19;12.35;;;10.38;;
36191;SDS011;22233;42.708;23.360;2023-06-24T02:25:47;11.13;;;9.75;;
36191;SDS011;22233;42.708;23.360;2023-06-24T02:28:14;11.98;;;9.50;;
36191;SDS011;22233;42.708;23.360;2023-06-24T02:30:41;12.57;;;10.13;;
36191;SDS011;22233;42.708;23.360;2023-06-24T02:33:08;15.00;;;10.50;;
36191;SDS011;22233;42.708;23.360;2023-06-24T02:35:34;12.55;;;9.75;;
36191;SDS011;22233;42.708;23.360;2023-06-24T02:37:59;14.48;;;10.05;;
36191;SDS011;22233;42.708;23.360;2023-06-24T02:40:25;14.43;;;10.25;;
36191;SDS011;22233;42.708;23.360;2023-06-24T02:42:52;12.80;;;9.85;;
36191;SDS011;22233;42.708;23.360;2023-06-24T02:45:17;13.75;;;10.10;;
36191;SDS011;22233;42.708;23.360;2023-06-24T02:47:43;14.35;;;11.38;;
36191;SDS011;22233;42.708;23.360;2023-06-24T02:50:11;13.00;;;10.82;;
36191;SDS011;22233;42.708;23.360;2023-06-24T02:52:37;15.65;;;12.52;;
36191;SDS011;22233;42.708;23.360;2023-06-24T02:55:04;13.40;;;12.00;;
36191;SDS011;22233;42.708;23.360;2023-06-24T02:57:30;17.63;;;12.60;;
36191;SDS011;22233;42.708;23.360;2023-06-24T02:59:57;13.90;;;12.40;;
36191;SDS011;22233;42.708;23.360;2023-06-24T03:02:23;14.75;;;11.98;;
36191;SDS011;22233;42.708;23.360;2023-06-24T03:04:52;14.90;;;11.70;;
36191;SDS011;22233;42.708;23.360;2023-06-24T03:07:18;17.70;;;12.93;;
36191;SDS011;22233;42.708;23.360;2023-06-24T03:09:47;14.45;;;12.93;;
36191;SDS011;22233;42.708;23.360;2023-06-24T03:12:13;16.98;;;13.75;;
36191;SDS011;22233;42.708;23.360;2023-06-24T03:14:38;19.83;;;13.13;;
36191;SDS011;22233;42.708;23.360;2023-06-24T03:17:04;15.57;;;12.32;;
36191;SDS011;22233;42.708;23.360;2023-06-24T03:19:29;15.50;;;13.05;;
36191;SDS011;22233;42.708;23.360;2023-06-24T03:21:55;17.45;;;13.38;;
36191;SDS011;22233;42.708;23.360;2023-06-24T03:24:20;17.13;;;13.02;;
36191;SDS011;22233;42.708;23.360;2023-06-24T03:26:46;16.83;;;12.68;;
36191;SDS011;22233;42.708;23.360;2023-06-24T03:29:11;15.80;;;12.73;;
36191;SDS011;22233;42.708;23.360;2023-06-24T03:31:37;19.25;;;13.63;;
36191;SDS011;22233;42.708;23.360;2023-06-24T03:34:03;14.35;;;12.73;;
36191;SDS011;22233;42.708;23.360;2023-06-24T03:36:28;17.48;;;13.10;;
36191;SDS011;22233;42.708;23.360;2023-06-24T03:38:53;18.85;;;13.10;;
36191;SDS011;22233;42.708;23.360;2023-06-24T03:41:19;17.20;;;12.35;;
36191;SDS011;22233;42.708;23.360;2023-06-24T03:43:46;17.95;;;13.48;;
36191;SDS011;22233;42.708;23.360;2023-06-24T03:46:13;17.27;;;13.20;;
36191;SDS011;22233;42.708;23.360;2023-06-24T03:48:39;15.95;;;13.07;;
36191;SDS011;22233;42.708;23.360;2023-06-24T03:51:05;15.55;;;12.20;;
36191;SDS011;22233;42.708;23.360;2023-06-24T03:53:30;15.07;;;12.10;;
36191;SDS011;22233;42.708;23.360;2023-06-24T03:55:56;16.77;;;12.70;;
36191;SDS011;22233;42.708;23.360;2023-06-24T03:58:21;17.35;;;13.52;;
36191;SDS011;22233;42.708;23.360;2023-06-24T04:00:47;18.63;;;12.60;;
36191;SDS011;22233;42.708;23.360;2023-06-24T04:03:14;14.23;;;12.63;;
36191;SDS011;22233;42.708;23.360;2023-06-24T04:05:42;17.67;;;12.63;;
36191;SDS011;22233;42.708;23.360;2023-06-24T04:08:08;14.85;;;12.27;;
36191;SDS011;22233;42.708;23.360;2023-06-24T04:10:33;14.68;;;12.30;;
36191;SDS011;22233;42.708;23.360;2023-06-24T04:12:59;18.77;;;13.43;;
36191;SDS011;22233;42.708;23.360;2023-06-24T04:15:24;19.25;;;13.98;;
36191;SDS011;22233;42.708;23.360;2023-06-24T04:17:49;15.57;;;13.73;;
36191;SDS011;22233;42.708;23.360;2023-06-24T04:20:18;17.45;;;12.77;;
36191;SDS011;22233;42.708;23.360;2023-06-24T04:22:43;20.10;;;13.23;;
36191;SDS011;22233;42.708;23.360;2023-06-24T04:25:08;14.93;;;12.88;;
36191;SDS011;22233;42.708;23.360;2023-06-24T04:27:34;19.45;;;13.27;;
36191;SDS011;22233;42.708;23.360;2023-06-24T04:30:00;16.40;;;12.82;;
36191;SDS011;22233;42.708;23.360;2023-06-24T04:32:27;17.02;;;13.65;;
36191;SDS011;22233;42.708;23.360;2023-06-24T04:34:53;15.10;;;12.30;;
36191;SDS011;22233;42.708;23.360;2023-06-24T04:37:18;18.75;;;12.88;;
36191;SDS011;22233;42.708;23.360;2023-06-24T04:39:44;13.73;;;12.13;;
36191;SDS011;22233;42.708;23.360;2023-06-24T04:42:10;14.30;;;12.17;;
36191;SDS011;22233;42.708;23.360;2023-06-24T04:44:36;12.98;;;11.43;;
36191;SDS011;22233;42.708;23.360;2023-06-24T04:47:02;12.77;;;10.88;;
36191;SDS011;22233;42.708;23.360;2023-06-24T04:49:27;14.38;;;12.55;;
36191;SDS011;22233;42.708;23.360;2023-06-24T04:51:53;15.13;;;12.52;;
36191;SDS011;22233;42.708;23.360;2023-06-24T04:54:18;17.95;;;14.63;;
36191;SDS011;22233;42.708;23.360;2023-06-24T04:56:44;17.48;;;13.45;;
36191;SDS011;22233;42.708;23.360;2023-06-24T04:59:10;18.70;;;14.32;;
36191;SDS011;22233;42.708;23.360;2023-06-24T05:01:36;16.33;;;14.10;;
36191;SDS011;22233;42.708;23.360;2023-06-24T05:04:01;16.63;;;14.05;;
36191;SDS011;22233;42.708;23.360;2023-06-24T05:06:27;16.15;;;13.65;;
36191;SDS011;22233;42.708;23.360;2023-06-24T05:08:52;19.83;;;15.95;;
36191;SDS011;22233;42.708;23.360;2023-06-24T05:11:17;19.75;;;16.20;;
36191;SDS011;22233;42.708;23.360;2023-06-24T05:13:43;17.58;;;15.07;;
36191;SDS011;22233;42.708;23.360;2023-06-24T05:16:08;16.67;;;13.07;;
36191;SDS011;22233;42.708;23.360;2023-06-24T05:18:33;18.70;;;13.50;;
36191;SDS011;22233;42.708;23.360;2023-06-24T05:20:59;15.20;;;13.40;;
36191;SDS011;22233;42.708;23.360;2023-06-24T05:23:24;16.45;;;13.13;;
36191;SDS011;22233;42.708;23.360;2023-06-24T05:25:49;19.60;;;14.02;;
36191;SDS011;22233;42.708;23.360;2023-06-24T05:28:15;14.63;;;12.50;;
36191;SDS011;22233;42.708;23.360;2023-06-24T05:30:41;15.20;;;12.70;;
36191;SDS011;22233;42.708;23.360;2023-06-24T05:33:06;14.07;;;12.35;;
36191;SDS011;22233;42.708;23.360;2023-06-24T05:35:32;14.23;;;11.15;;
36191;SDS011;22233;42.708;23.360;2023-06-24T05:37:58;13.02;;;11.30;;
36191;SDS011;22233;42.708;23.360;2023-06-24T05:40:23;13.25;;;11.85;;
36191;SDS011;22233;42.708;23.360;2023-06-24T05:42:49;15.45;;;11.20;;
36191;SDS011;22233;42.708;23.360;2023-06-24T05:45:14;14.63;;;11.55;;
36191;SDS011;22233;42.708;23.360;2023-06-24T05:47:40;18.92;;;12.50;;
36191;SDS011;22233;42.708;23.360;2023-06-24T05:50:06;14.55;;;11.77;;
36191;SDS011;22233;42.708;23.360;2023-06-24T05:52:31;15.52;;;11.20;;
36191;SDS011;22233;42.708;23.360;2023-06-24T05:54:57;14.55;;;11.25;;
36191;SDS011;22233;42.708;23.360;2023-06-24T05:57:22;17.55;;;11.60;;
36191;SDS011;22233;42.708;23.360;2023-06-24T05:59:47;13.63;;;10.82;;
36191;SDS011;22233;42.708;23.360;2023-06-24T06:02:13;12.50;;;10.77;;
36191;SDS011;22233;42.708;23.360;2023-06-24T06:04:38;12.93;;;10.52;;
36191;SDS011;22233;42.708;23.360;2023-06-24T06:07:04;15.35;;;10.27;;
36191;SDS011;22233;42.708;23.360;2023-06-24T06:09:29;12.88;;;10.45;;
36191;SDS011;22233;42.708;23.360;2023-06-24T06:11:55;11.77;;;9.38;;
36191;SDS011;22233;42.708;23.360;2023-06-24T06:14:20;12.65;;;9.57;;
36191;SDS011;22233;42.708;23.360;2023-06-24T06:16:46;11.88;;;9.43;;
36191;SDS011;22233;42.708;23.360;2023-06-24T06:19:11;12.23;;;9.70;;
36191;SDS011;22233;42.708;23.360;2023-06-24T06:21:36;14.25;;;9.40;;
36191;SDS011;22233;42.708;23.360;2023-06-24T06:24:02;14.93;;;9.85;;
36191;SDS011;22233;42.708;23.360;2023-06-24T06:26:28;10.88;;;9.68;;
36191;SDS011;22233;42.708;23.360;2023-06-24T06:28:53;14.45;;;9.88;;
36191;SDS011;22233;42.708;23.360;2023-06-24T06:31:19;12.55;;;10.20;;
36191;SDS011;22233;42.708;23.360;2023-06-24T06:33:46;16.30;;;10.55;;
36191;SDS011;22233;42.708;23.360;2023-06-24T06:36:12;12.68;;;10.57;;
36191;SDS011;22233;42.708;23.360;2023-06-24T06:38:38;16.07;;;9.57;;
36191;SDS011;22233;42.708;23.360;2023-06-24T06:41:04;11.50;;;10.10;;
36191;SDS011;22233;42.708;23.360;2023-06-24T06:43:29;12.35;;;10.25;;
36191;SDS011;22233;42.708;23.360;2023-06-24T06:45:55;14.88;;;10.63;;
36191;SDS011;22233;42.708;23.360;2023-06-24T06:48:21;10.77;;;9.73;;
36191;SDS011;22233;42.708;23.360;2023-06-24T06:50:46;10.88;;;9.73;;
36191;SDS011;22233;42.708;23.360;2023-06-24T06:53:12;10.70;;;9.18;;
36191;SDS011;22233;42.708;23.360;2023-06-24T06:55:37;13.65;;;9.98;;
36191;SDS011;22233;42.708;23.360;2023-06-24T06:58:04;10.38;;;9.35;;
36191;SDS011;22233;42.708;23.360;2023-06-24T07:00:30;11.55;;;10.23;;
36191;SDS011;22233;42.708;23.360;2023-06-24T07:02:55;10.75;;;9.70;;
36191;SDS011;22233;42.708;23.360;2023-06-24T07:05:20;11.52;;;10.20;;
36191;SDS011;22233;42.708;23.360;2023-06-24T07:07:46;10.43;;;9.38;;
36191;SDS011;22233;42.708;23.360;2023-06-24T07:10:11;11.50;;;9.98;;
36191;SDS011;22233;42.708;23.360;2023-06-24T07:12:38;12.43;;;10.07;;
36191;SDS011;22233;42.708;23.360;2023-06-24T07:15:04;10.43;;;9.43;;
36191;SDS011;22233;42.708;23.360;2023-06-24T07:17:30;10.18;;;9.05;;
36191;SDS011;22233;42.708;23.360;2023-06-24T07:19:55;10.95;;;9.30;;
36191;SDS011;22233;42.708;23.360;2023-06-24T07:22:20;9.82;;;8.77;;
36191;SDS011;22233;42.708;23.360;2023-06-24T07:24:46;9.27;;;8.32;;
36191;SDS011;22233;42.708;23.360;2023-06-24T07:27:11;10.05;;;9.05;;
36191;SDS011;22233;42.708;23.360;2023-06-24T07:29:37;9.85;;;8.95;;
36191;SDS011;22233;42.708;23.360;2023-06-24T07:32:02;9.13;;;8.20;;
36191;SDS011;22233;42.708;23.360;2023-06-24T07:34:28;10.57;;;8.70;;
36191;SDS011;22233;42.708;23.360;2023-06-24T07:36:55;9.68;;;8.77;;
36191;SDS011;22233;42.708;23.360;2023-06-24T07:39:20;10.30;;;8.77;;
36191;SDS011;22233;42.708;23.360;2023-06-24T07:41:46;8.98;;;7.78;;
36191;SDS011;22233;42.708;23.360;2023-06-24T07:44:11;10.50;;;9.23;;
36191;SDS011;22233;42.708;23.360;2023-06-24T07:46:37;11.38;;;9.05;;
36191;SDS011;22233;42.708;23.360;2023-06-24T07:49:02;11.45;;;9.07;;
36191;SDS011;22233;42.708;23.360;2023-06-24T07:51:28;9.60;;;8.70;;
36191;SDS011;22233;42.708;23.360;2023-06-24T07:53:53;11.70;;;8.75;;
36191;SDS011;22233;42.708;23.360;2023-06-24T07:56:18;9.32;;;8.15;;
36191;SDS011;22233;42.708;23.360;2023-06-24T07:58:44;10.52;;;8.98;;
36191;SDS011;22233;42.708;23.360;2023-06-24T08:01:09;11.93;;;9.45;;
36191;SDS011;22233;42.708;23.360;2023-06-24T08:03:34;9.20;;;8.40;;
36191;SDS011;22233;42.708;23.360;2023-06-24T08:06:02;9.43;;;8.52;;
36191;SDS011;22233;42.708;23.360;2023-06-24T08:08:28;9.63;;;8.45;;
36191;SDS011;22233;42.708;23.360;2023-06-24T08:10:53;10.20;;;9.10;;
36191;SDS011;22233;42.708;23.360;2023-06-24T08:13:18;9.85;;;8.75;;
36191;SDS011;22233;42.708;23.360;2023-06-24T08:15:44;9.57;;;8.57;;
36191;SDS011;22233;42.708;23.360;2023-06-24T08:18:09;11.13;;;8.32;;
36191;SDS011;22233;42.708;23.360;2023-06-24T08:20:35;9.65;;;8.65;;
36191;SDS011;22233;42.708;23.360;2023-06-24T08:23:00;10.00;;;8.90;;
36191;SDS011;22233;42.708;23.360;2023-06-24T08:25:26;10.68;;;8.60;;
36191;SDS011;22233;42.708;23.360;2023-06-24T08:27:52;11.70;;;9.07;;
36191;SDS011;22233;42.708;23.360;2023-06-24T08:30:17;13.25;;;8.68;;
36191;SDS011;22233;42.708;23.360;2023-06-24T08:32:43;9.75;;;8.73;;
36191;SDS011;22233;42.708;23.360;2023-06-24T08:35:08;10.93;;;8.73;;
36191;SDS011;22233;42.708;23.360;2023-06-24T08:37:35;8.88;;;7.97;;
36191;SDS011;22233;42.708;23.360;2023-06-24T08:40:02;10.40;;;8.52;;
36191;SDS011;22233;42.708;23.360;2023-06-24T08:42:29;10.38;;;8.82;;
36191;SDS011;22233;42.708;23.360;2023-06-24T08:44:55;10.75;;;8.65;;
36191;SDS011;22233;42.708;23.360;2023-06-24T08:47:20;11.27;;;9.07;;
36191;SDS011;22233;42.708;23.360;2023-06-24T08:49:51;9.60;;;8.70;;
36191;SDS011;22233;42.708;23.360;2023-06-24T08:52:21;9.40;;;8.40;;
36191;SDS011;22233;42.708;23.360;2023-06-24T08:54:51;9.48;;;8.38;;
36191;SDS011;22233;42.708;23.360;2023-06-24T08:57:20;10.05;;;9.10;;
36191;SDS011;22233;42.708;23.360;2023-06-24T08:59:45;10.10;;;8.77;;
36191;SDS011;22233;42.708;23.360;2023-06-24T09:02:11;10.70;;;8.80;;
36191;SDS011;22233;42.708;23.360;2023-06-24T09:04:38;9.60;;;8.68;;
36191;SDS011;22233;42.708;23.360;2023-06-24T09:07:04;11.27;;;8.30;;
36191;SDS011;22233;42.708;23.360;2023-06-24T09:09:30;9.60;;;8.70;;
36191;SDS011;22233;42.708;23.360;2023-06-24T09:11:59;10.45;;;8.65;;
36191;SDS011;22233;42.708;23.360;2023-06-24T09:14:29;9.55;;;8.43;;
36191;SDS011;22233;42.708;23.360;2023-06-24T09:16:56;10.25;;;8.77;;
36191;SDS011;22233;42.708;23.360;2023-06-24T09:19:26;10.48;;;9.27;;
36191;SDS011;22233;42.708;23.360;2023-06-24T09:21:55;12.88;;;8.38;;
36191;SDS011;22233;42.708;23.360;2023-06-24T09:24:32;11.40;;;9.68;;
36191;SDS011;22233;42.708;23.360;2023-06-24T09:26:58;9.40;;;8.50;;
36191;SDS011;22233;42.708;23.360;2023-06-24T09:29:27;10.27;;;9.18;;
36191;SDS011;22233;42.708;23.360;2023-06-24T09:31:54;12.27;;;8.38;;
36191;SDS011;22233;42.708;23.360;2023-06-24T09:34:24;9.43;;;8.48;;
36191;SDS011;22233;42.708;23.360;2023-06-24T09:36:51;14.65;;;9.40;;
36191;SDS011;22233;42.708;23.360;2023-06-24T09:39:18;11.68;;;8.98;;
36191;SDS011;22233;42.708;23.360;2023-06-24T09:41:45;10.07;;;8.93;;
36191;SDS011;22233;42.708;23.360;2023-06-24T09:44:15;14.30;;;11.00;;
36191;SDS011;22233;42.708;23.360;2023-06-24T09:46:41;10.20;;;9.10;;
36191;SDS011;22233;42.708;23.360;2023-06-24T09:49:08;11.13;;;8.48;;
36191;SDS011;22233;42.708;23.360;2023-06-24T09:51:36;10.02;;;9.00;;
36191;SDS011;22233;42.708;23.360;2023-06-24T09:54:07;9.77;;;8.63;;
36191;SDS011;22233;42.708;23.360;2023-06-24T09:56:34;10.15;;;8.43;;
36191;SDS011;22233;42.708;23.360;2023-06-24T09:59:03;10.68;;;8.52;;
36191;SDS011;22233;42.708;23.360;2023-06-24T10:01:30;9.23;;;8.32;;
36191;SDS011;22233;42.708;23.360;2023-06-24T10:03:57;12.02;;;8.93;;
36191;SDS011;22233;42.708;23.360;2023-06-24T10:06:24;11.57;;;8.37;;
36191;SDS011;22233;42.708;23.360;2023-06-24T10:08:50;9.60;;;8.60;;
36191;SDS011;22233;42.708;23.360;2023-06-24T10:11:16;10.70;;;8.73;;
36191;SDS011;22233;42.708;23.360;2023-06-24T10:13:41;9.55;;;8.55;;
36191;SDS011;22233;42.708;23.360;2023-06-24T10:16:07;9.70;;;7.43;;
36191;SDS011;22233;42.708;23.360;2023-06-24T10:21:01;9.40;;;8.45;;
36191;SDS011;22233;42.708;23.360;2023-06-24T10:26:21;8.95;;;8.15;;
36191;SDS011;22233;42.708;23.360;2023-06-24T10:34:26;13.05;;;8.80;;
36191;SDS011;22233;42.708;23.360;2023-06-24T10:47:35;9.07;;;8.18;;
36191;SDS011;22233;42.708;23.360;2023-06-24T10:50:02;10.88;;;7.75;;
36191;SDS011;22233;42.708;23.360;2023-06-24T10:52:28;7.93;;;7.10;;
36191;SDS011;22233;42.708;23.360;2023-06-24T10:54:55;8.13;;;7.27;;
36191;SDS011;22233;42.708;23.360;2023-06-24T10:57:26;7.57;;;6.88;;
36191;SDS011;22233;42.708;23.360;2023-06-24T10:59:53;10.63;;;7.40;;
36191;SDS011;22233;42.708;23.360;2023-06-24T11:02:23;7.22;;;6.53;;
36191;SDS011;22233;42.708;23.360;2023-06-24T11:04:51;8.45;;;6.35;;
36191;SDS011;22233;42.708;23.360;2023-06-24T11:07:18;7.72;;;6.28;;
36191;SDS011;22233;42.708;23.360;2023-06-24T11:09:48;8.52;;;5.70;;
36191;SDS011;22233;42.708;23.360;2023-06-24T11:12:15;6.43;;;5.82;;
36191;SDS011;22233;42.708;23.360;2023-06-24T11:14:41;7.57;;;5.80;;
36191;SDS011;22233;42.708;23.360;2023-06-24T11:17:06;5.70;;;4.47;;
36191;SDS011;22233;42.708;23.360;2023-06-24T11:19:32;6.50;;;5.17;;
36191;SDS011;22233;42.708;23.360;2023-06-24T11:22:01;7.07;;;5.65;;
36191;SDS011;22233;42.708;23.360;2023-06-24T11:24:27;6.53;;;5.53;;
36191;SDS011;22233;42.708;23.360;2023-06-24T11:26:53;5.67;;;5.07;;
36191;SDS011;22233;42.708;23.360;2023-06-24T11:29:18;6.07;;;5.30;;
36191;SDS011;22233;42.708;23.360;2023-06-24T11:31:46;6.03;;;5.43;;
36191;SDS011;22233;42.708;23.360;2023-06-24T11:34:12;5.88;;;5.30;;
36191;SDS011;22233;42.708;23.360;2023-06-24T11:36:37;6.33;;;5.47;;
36191;SDS011;22233;42.708;23.360;2023-06-24T11:39:03;7.57;;;5.90;;
36191;SDS011;22233;42.708;23.360;2023-06-24T11:41:28;5.90;;;5.30;;
36191;SDS011;22233;42.708;23.360;2023-06-24T11:43:54;5.77;;;4.80;;
36191;SDS011;22233;42.708;23.360;2023-06-24T11:49:04;5.28;;;4.78;;
36191;SDS011;22233;42.708;23.360;2023-06-24T11:51:30;5.28;;;4.78;;
36191;SDS011;22233;42.708;23.360;2023-06-24T11:53:58;9.10;;;5.10;;
36191;SDS011;22233;42.708;23.360;2023-06-24T11:56:41;6.13;;;4.90;;
36191;SDS011;22233;42.708;23.360;2023-06-24T11:59:18;7.57;;;5.43;;
36191;SDS011;22233;42.708;23.360;2023-06-24T12:01:54;7.68;;;5.47;;
36191;SDS011;22233;42.708;23.360;2023-06-24T12:04:21;7.70;;;5.90;;
36191;SDS011;22233;42.708;23.360;2023-06-24T12:06:51;6.40;;;5.80;;
36191;SDS011;22233;42.708;23.360;2023-06-24T12:09:17;6.73;;;5.93;;
36191;SDS011;22233;42.708;23.360;2023-06-24T12:11:42;8.17;;;6.43;;
36191;SDS011;22233;42.708;23.360;2023-06-24T12:14:08;6.50;;;5.90;;
36191;SDS011;22233;42.708;23.360;2023-06-24T12:16:33;7.03;;;5.97;;
36191;SDS011;22233;42.708;23.360;2023-06-24T12:18:58;7.83;;;6.00;;
36191;SDS011;22233;42.708;23.360;2023-06-24T12:21:24;6.77;;;6.03;;
36191;SDS011;22233;42.708;23.360;2023-06-24T12:23:49;6.90;;;6.27;;
36191;SDS011;22233;42.708;23.360;2023-06-24T12:26:15;7.53;;;6.30;;
36191;SDS011;22233;42.708;23.360;2023-06-24T12:28:41;6.83;;;6.13;;
36191;SDS011;22233;42.708;23.360;2023-06-24T12:31:06;6.70;;;6.00;;
36191;SDS011;22233;42.708;23.360;2023-06-24T12:33:32;7.20;;;6.43;;
36191;SDS011;22233;42.708;23.360;2023-06-24T12:35:58;8.63;;;6.20;;
36191;SDS011;22233;42.708;23.360;2023-06-24T12:38:24;6.35;;;5.75;;
36191;SDS011;22233;42.708;23.360;2023-06-24T12:40:49;8.13;;;6.63;;
36191;SDS011;22233;42.708;23.360;2023-06-24T12:43:15;7.15;;;6.45;;
36191;SDS011;22233;42.708;23.360;2023-06-24T12:45:41;7.93;;;6.17;;
36191;SDS011;22233;42.708;23.360;2023-06-24T12:48:12;7.97;;;6.43;;
36191;SDS011;22233;42.708;23.360;2023-06-24T12:50:38;6.32;;;5.75;;
36191;SDS011;22233;42.708;23.360;2023-06-24T12:53:04;6.70;;;5.95;;
36191;SDS011;22233;42.708;23.360;2023-06-24T12:55:30;9.23;;;7.22;;
36191;SDS011;22233;42.708;23.360;2023-06-24T12:57:55;7.20;;;6.50;;
36191;SDS011;22233;42.708;23.360;2023-06-24T13:00:22;9.73;;;6.47;;
36191;SDS011;22233;42.708;23.360;2023-06-24T13:02:48;7.97;;;6.68;;
36191;SDS011;22233;42.708;23.360;2023-06-24T13:05:14;6.47;;;5.85;;
36191;SDS011;22233;42.708;23.360;2023-06-24T13:07:40;9.03;;;5.77;;
36191;SDS011;22233;42.708;23.360;2023-06-24T13:10:05;6.57;;;5.72;;
36191;SDS011;22233;42.708;23.360;2023-06-24T13:12:31;7.28;;;6.57;;
36191;SDS011;22233;42.708;23.360;2023-06-24T13:14:57;8.45;;;6.72;;
36191;SDS011;22233;42.708;23.360;2023-06-24T13:17:23;8.30;;;7.13;;
36191;SDS011;22233;42.708;23.360;2023-06-24T13:19:49;10.43;;;6.83;;
36191;SDS011;22233;42.708;23.360;2023-06-24T13:22:15;9.50;;;6.70;;
36191;SDS011;22233;42.708;23.360;2023-06-24T13:24:41;8.65;;;6.85;;
36191;SDS011;22233;42.708;23.360;2023-06-24T13:27:07;12.47;;;6.70;;
36191;SDS011;22233;42.708;23.360;2023-06-24T13:29:32;19.63;;;8.02;;
36191;SDS011;22233;42.708;23.360;2023-06-24T13:31:57;31.67;;;7.32;;
36191;SDS011;22233;42.708;23.360;2023-06-24T13:34:23;34.08;;;6.57;;
36191;SDS011;22233;42.708;23.360;2023-06-24T13:36:48;15.68;;;5.32;;
36191;SDS011;22233;42.708;23.360;2023-06-24T13:39:14;12.77;;;5.63;;
36191;SDS011;22233;42.708;23.360;2023-06-24T13:41:41;26.88;;;7.13;;
36191;SDS011;22233;42.708;23.360;2023-06-24T13:44:07;19.40;;;5.53;;
36191;SDS011;22233;42.708;23.360;2023-06-24T13:46:33;11.45;;;4.63;;
36191;SDS011;22233;42.708;23.360;2023-06-24T13:48:59;12.32;;;4.18;;
36191;SDS011;22233;42.708;23.360;2023-06-24T13:51:24;7.25;;;4.28;;
36191;SDS011;22233;42.708;23.360;2023-06-24T13:53:51;5.68;;;4.32;;
36191;SDS011;22233;42.708;23.360;2023-06-24T13:56:18;5.35;;;4.43;;
36191;SDS011;22233;42.708;23.360;2023-06-24T13:58:44;5.10;;;4.25;;
36191;SDS011;22233;42.708;23.360;2023-06-24T14:01:11;9.00;;;5.15;;
36191;SDS011;22233;42.708;23.360;2023-06-24T14:03:37;11.77;;;4.95;;
36191;SDS011;22233;42.708;23.360;2023-06-24T14:06:02;15.93;;;5.80;;
36191;SDS011;22233;42.708;23.360;2023-06-24T14:08:29;8.27;;;4.85;;
36191;SDS011;22233;42.708;23.360;2023-06-24T14:10:56;10.73;;;6.13;;
36191;SDS011;22233;42.708;23.360;2023-06-24T14:13:22;12.75;;;4.90;;
36191;SDS011;22233;42.708;23.360;2023-06-24T14:15:47;12.73;;;6.07;;
36191;SDS011;22233;42.708;23.360;2023-06-24T14:18:13;13.30;;;5.93;;
36191;SDS011;22233;42.708;23.360;2023-06-24T14:20:38;11.02;;;5.30;;
36191;SDS011;22233;42.708;23.360;2023-06-24T14:23:04;9.40;;;5.97;;
36191;SDS011;22233;42.708;23.360;2023-06-24T14:25:29;9.98;;;6.47;;
36191;SDS011;22233;42.708;23.360;2023-06-24T14:27:55;8.35;;;4.93;;
36191;SDS011;22233;42.708;23.360;2023-06-24T14:30:21;9.15;;;5.20;;
36191;SDS011;22233;42.708;23.360;2023-06-24T14:32:46;12.38;;;5.07;;
36191;SDS011;22233;42.708;23.360;2023-06-24T14:35:12;11.45;;;5.63;;
36191;SDS011;22233;42.708;23.360;2023-06-24T14:37:37;14.25;;;5.35;;
36191;SDS011;22233;42.708;23.360;2023-06-24T14:40:03;10.35;;;5.05;;
36191;SDS011;22233;42.708;23.360;2023-06-24T14:42:29;10.45;;;5.22;;
36191;SDS011;22233;42.708;23.360;2023-06-24T14:44:54;8.63;;;4.93;;
36191;SDS011;22233;42.708;23.360;2023-06-24T14:47:20;15.35;;;5.43;;
36191;SDS011;22233;42.708;23.360;2023-06-24T14:49:45;12.18;;;4.97;;
36191;SDS011;22233;42.708;23.360;2023-06-24T14:52:10;7.85;;;4.22;;
36191;SDS011;22233;42.708;23.360;2023-06-24T14:54:36;16.85;;;6.53;;
36191;SDS011;22233;42.708;23.360;2023-06-24T14:57:01;12.25;;;5.97;;
36191;SDS011;22233;42.708;23.360;2023-06-24T14:59:27;13.48;;;5.22;;